createdAt,value
2016-09-02T00:00:22.790Z,14.16
2016-09-02T00:01:22.816Z,14.08
2016-09-02T00:02:22.876Z,14.05
2016-09-02T00:03:22.854Z,14.01
2016-09-02T00:04:22.779Z,14.03
2016-09-02T00:05:22.971Z,13.9
2016-09-02T00:06:22.783Z,13.95
2016-09-02T00:07:22.801Z,13.94
2016-09-02T00:08:22.788Z,13.9
2016-09-02T00:09:22.871Z,13.86
2016-09-02T00:10:22.862Z,13.87
2016-09-02T00:11:22.797Z,13.87
2016-09-02T00:12:22.868Z,13.86
2016-09-02T00:13:22.876Z,13.79
2016-09-02T00:14:23.415Z,13.88
2016-09-02T00:15:23.002Z,13.81
2016-09-02T00:16:22.798Z,13.76
2016-09-02T00:17:22.805Z,13.9
2016-09-02T00:18:22.787Z,13.95
2016-09-02T00:19:22.786Z,13.86
2016-09-02T00:20:22.942Z,13.84
2016-09-02T00:21:22.793Z,13.81
2016-09-02T00:22:22.743Z,13.81
2016-09-02T00:23:22.791Z,13.87
2016-09-02T00:24:22.800Z,13.75
2016-09-02T00:25:22.723Z,13.69
2016-09-02T00:26:22.793Z,13.66
2016-09-02T00:27:22.816Z,13.72
2016-09-02T00:28:22.802Z,13.73
2016-09-02T00:29:22.818Z,13.7
2016-09-02T00:30:22.891Z,13.78
2016-09-02T00:31:22.811Z,13.73
2016-09-02T00:32:22.818Z,13.72
2016-09-02T00:33:22.729Z,13.65
2016-09-02T00:34:22.884Z,13.69
2016-09-02T00:35:22.894Z,13.72
2016-09-02T00:36:22.740Z,13.86
2016-09-02T00:37:22.824Z,13.88
2016-09-02T00:38:22.754Z,13.81
2016-09-02T00:39:22.826Z,13.69
2016-09-02T00:40:22.746Z,13.75
2016-09-02T00:41:22.816Z,13.75
2016-09-02T00:42:22.828Z,13.75
2016-09-02T00:43:22.846Z,13.66
2016-09-02T00:44:22.825Z,13.68
2016-09-02T00:45:22.760Z,13.66
2016-09-02T00:46:22.827Z,13.63
2016-09-02T00:47:22.760Z,13.57
2016-09-02T00:48:22.835Z,13.57
2016-09-02T00:49:22.832Z,13.54
2016-09-02T00:50:23.095Z,13.55
2016-09-02T00:51:22.903Z,13.5
2016-09-02T00:52:22.838Z,13.53
2016-09-02T00:53:22.832Z,13.57
2016-09-02T00:54:22.845Z,13.68
2016-09-02T00:55:22.760Z,13.68
2016-09-02T00:56:22.846Z,13.62
2016-09-02T00:57:22.853Z,13.66
2016-09-02T00:58:22.855Z,13.37
2016-09-02T00:59:22.762Z,13.44
2016-09-02T01:00:22.855Z,13.53
2016-09-02T01:01:22.935Z,13.55
2016-09-02T01:02:22.876Z,13.39
2016-09-02T01:03:22.855Z,13.45
2016-09-02T01:04:22.770Z,13.42
2016-09-02T01:05:23.041Z,13.42
2016-09-02T01:06:22.777Z,13.4
2016-09-02T01:07:22.876Z,13.29
2016-09-02T01:08:22.931Z,13.35
2016-09-02T01:09:22.971Z,13.48
2016-09-02T01:10:22.869Z,13.48
2016-09-02T01:11:22.796Z,13.31
2016-09-02T01:12:22.798Z,13.37
2016-09-02T01:13:22.868Z,13.42
2016-09-02T01:14:22.876Z,13.58
2016-09-02T01:15:22.863Z,13.65
2016-09-02T01:16:22.947Z,13.66
2016-09-02T01:17:22.965Z,13.63
2016-09-02T01:18:22.871Z,13.55
2016-09-02T01:19:22.943Z,13.53
2016-09-02T01:20:22.874Z,13.4
2016-09-02T01:21:22.957Z,13.36
2016-09-02T01:22:22.877Z,13.42
2016-09-02T01:23:22.879Z,13.4
2016-09-02T01:24:22.794Z,13.28
2016-09-02T01:25:22.812Z,13.36
2016-09-02T01:26:22.880Z,13.36
2016-09-02T01:27:24.106Z,13.28
2016-09-02T01:28:22.910Z,13.42
2016-09-02T01:29:22.889Z,13.53
2016-09-02T01:30:23.508Z,13.5
2016-09-02T01:31:22.834Z,13.42
2016-09-02T01:32:22.822Z,13.44
2016-09-02T01:33:22.912Z,13.36
2016-09-02T01:34:22.913Z,13.27
2016-09-02T01:35:22.907Z,13.29
2016-09-02T01:36:22.890Z,13.21
2016-09-02T01:37:22.832Z,13.31
2016-09-02T01:38:22.901Z,13.36
2016-09-02T01:39:22.903Z,13.28
2016-09-02T01:40:22.973Z,13.21
2016-09-02T01:41:22.908Z,13.16
2016-09-02T01:42:22.819Z,13.16
2016-09-02T01:43:22.826Z,13.2
2016-09-02T01:44:22.922Z,13.16
2016-09-02T01:45:22.906Z,13.09
2016-09-02T01:46:22.912Z,13.19
2016-09-02T01:47:22.918Z,13.1
2016-09-02T01:48:22.918Z,13.14
2016-09-02T01:49:22.991Z,13.13
2016-09-02T01:50:23.174Z,13.07
2016-09-02T01:51:22.985Z,13.09
2016-09-02T01:52:22.926Z,13.13
2016-09-02T01:53:22.842Z,13.14
2016-09-02T01:54:22.843Z,13.1
2016-09-02T01:55:22.843Z,13.16
2016-09-02T01:56:22.926Z,13.2
2016-09-02T01:57:22.849Z,13.14
2016-09-02T01:58:23.003Z,13.14
2016-09-02T01:59:22.919Z,13.03
2016-09-02T02:00:22.853Z,13.09
2016-09-02T02:01:22.933Z,13.1
2016-09-02T02:02:22.941Z,13.11
2016-09-02T02:03:22.941Z,13.17
2016-09-02T02:04:22.928Z,13.32
2016-09-02T02:05:23.009Z,13.36
2016-09-02T02:06:22.926Z,13.37
2016-09-02T02:07:22.937Z,13.29
2016-09-02T02:08:23.001Z,13.36
2016-09-02T02:09:22.945Z,13.29
2016-09-02T02:10:22.862Z,13.32
2016-09-02T02:11:22.943Z,13.44
2016-09-02T02:12:22.942Z,13.6
2016-09-02T02:13:22.946Z,13.57
2016-09-02T02:14:22.957Z,13.5
2016-09-02T02:15:22.883Z,13.36
2016-09-02T02:16:22.956Z,13.31
2016-09-02T02:17:22.948Z,13.37
2016-09-02T02:18:22.894Z,13.25
2016-09-02T02:19:22.948Z,12.99
2016-09-02T02:20:22.952Z,13.16
2016-09-02T02:21:22.952Z,13.19
2016-09-02T02:22:23.041Z,13.16
2016-09-02T02:23:23.042Z,13.16
2016-09-02T02:24:22.954Z,13.14
2016-09-02T02:25:23.270Z,13.11
2016-09-02T02:26:23.069Z,13.11
2016-09-02T02:27:22.885Z,13.09
2016-09-02T02:28:23.045Z,13.02
2016-09-02T02:29:22.969Z,13.01
2016-09-02T02:30:23.042Z,13.06
2016-09-02T02:31:22.901Z,12.99
2016-09-02T02:32:22.966Z,12.95
2016-09-02T02:33:23.050Z,12.91
2016-09-02T02:34:22.967Z,12.99
2016-09-02T02:35:23.344Z,12.84
2016-09-02T02:36:22.992Z,12.94
2016-09-02T02:37:22.983Z,12.98
2016-09-02T02:38:23.071Z,12.86
2016-09-02T02:39:22.988Z,12.92
2016-09-02T02:40:22.894Z,12.94
2016-09-02T02:41:22.907Z,12.86
2016-09-02T02:42:22.982Z,12.84
2016-09-02T02:43:22.912Z,12.78
2016-09-02T02:44:22.975Z,12.92
2016-09-02T02:45:23.050Z,12.92
2016-09-02T02:46:22.926Z,13.13
2016-09-02T02:47:23.062Z,13.21
2016-09-02T02:48:22.987Z,13.27
2016-09-02T02:49:22.915Z,13.19
2016-09-02T02:50:23.118Z,13.17
2016-09-02T02:51:23.190Z,13.16
2016-09-02T02:52:22.928Z,13.19
2016-09-02T02:53:22.992Z,13.21
2016-09-02T02:54:22.922Z,13.17
2016-09-02T02:55:23.064Z,13.24
2016-09-02T02:56:22.918Z,13.19
2016-09-02T02:57:23.007Z,13.25
2016-09-02T02:58:23.014Z,13.24
2016-09-02T02:59:22.926Z,13.29
2016-09-02T03:00:22.941Z,13.37
2016-09-02T03:01:23.015Z,13.35
2016-09-02T03:02:23.017Z,13.37
2016-09-02T03:03:22.942Z,13.32
2016-09-02T03:04:23.007Z,13.25
2016-09-02T03:05:23.085Z,13.29
2016-09-02T03:06:23.080Z,13.16
2016-09-02T03:07:23.018Z,13.17
2016-09-02T03:08:23.035Z,13.24
2016-09-02T03:09:23.024Z,13.16
2016-09-02T03:10:23.025Z,13.16
2016-09-02T03:11:23.013Z,13.13
2016-09-02T03:12:23.013Z,13.17
2016-09-02T03:13:23.102Z,13.11
2016-09-02T03:14:23.023Z,13.07
2016-09-02T03:15:23.022Z,13.2
2016-09-02T03:16:23.019Z,13.1
2016-09-02T03:17:23.103Z,13.11
2016-09-02T03:18:23.026Z,13.16
2016-09-02T03:19:23.027Z,13.13
2016-09-02T03:20:23.113Z,13.09
2016-09-02T03:21:23.037Z,13.13
2016-09-02T03:22:23.029Z,13.03
2016-09-02T03:23:23.104Z,13.17
2016-09-02T03:24:22.976Z,13.16
2016-09-02T03:25:23.539Z,13.17
2016-09-02T03:26:22.977Z,13.17
2016-09-02T03:27:23.107Z,13.13
2016-09-02T03:28:22.977Z,13.13
2016-09-02T03:29:23.119Z,13.14
2016-09-02T03:30:22.985Z,13.17
2016-09-02T03:31:23.033Z,13.25
2016-09-02T03:32:23.140Z,13.24
2016-09-02T03:33:22.968Z,13.35
2016-09-02T03:34:22.972Z,13.24
2016-09-02T03:35:23.062Z,13.2
2016-09-02T03:36:22.974Z,13.36
2016-09-02T03:37:23.046Z,13.2
2016-09-02T03:38:23.050Z,13.19
2016-09-02T03:39:23.064Z,13.19
2016-09-02T03:40:23.136Z,13.24
2016-09-02T03:41:22.983Z,13.19
2016-09-02T03:42:23.050Z,13.19
2016-09-02T03:43:23.152Z,13.16
2016-09-02T03:44:22.978Z,13.13
2016-09-02T03:45:23.266Z,13.09
2016-09-02T03:46:22.989Z,13.07
2016-09-02T03:47:22.992Z,13.13
2016-09-02T03:48:23.074Z,13.02
2016-09-02T03:49:23.004Z,13.03
2016-09-02T03:50:23.349Z,13.09
2016-09-02T03:51:23.199Z,13.09
2016-09-02T03:52:23.089Z,13.32
2016-09-02T03:53:23.005Z,13.42
2016-09-02T03:54:23.131Z,13.4
2016-09-02T03:55:23.082Z,13.32
2016-09-02T03:56:23.087Z,13.28
2016-09-02T03:57:23.086Z,13.31
2016-09-02T03:58:23.000Z,13.29
2016-09-02T03:59:23.008Z,13.16
2016-09-02T04:00:23.070Z,13.31
2016-09-02T04:01:23.162Z,13.19
2016-09-02T04:02:23.163Z,13.32
2016-09-02T04:03:23.081Z,13.28
2016-09-02T04:04:23.175Z,13.31
2016-09-02T04:05:23.024Z,13.36
2016-09-02T04:06:23.016Z,13.29
2016-09-02T04:07:23.112Z,13.2
2016-09-02T04:08:23.093Z,13.31
2016-09-02T04:09:23.167Z,13.31
2016-09-02T04:10:23.183Z,13.35
2016-09-02T04:11:23.086Z,13.37
2016-09-02T04:12:23.106Z,13.31
2016-09-02T04:13:23.180Z,13.24
2016-09-02T04:14:23.188Z,13.5
2016-09-02T04:15:23.103Z,13.87
2016-09-02T04:16:23.115Z,13.84
2016-09-02T04:17:23.106Z,13.88
2016-09-02T04:18:23.115Z,13.93
2016-09-02T04:19:23.127Z,13.88
2016-09-02T04:20:23.030Z,13.84
2016-09-02T04:21:23.109Z,13.72
2016-09-02T04:22:23.125Z,13.66
2016-09-02T04:23:23.109Z,13.73
2016-09-02T04:24:23.103Z,13.69
2016-09-02T04:25:23.041Z,13.69
2016-09-02T04:26:23.133Z,13.69
2016-09-02T04:27:23.117Z,13.68
2016-09-02T04:28:23.134Z,13.69
2016-09-02T04:29:23.049Z,13.73
2016-09-02T04:30:23.263Z,13.65
2016-09-02T04:31:23.120Z,13.65
2016-09-02T04:32:23.057Z,13.58
2016-09-02T04:33:23.132Z,13.66
2016-09-02T04:34:23.217Z,13.63
2016-09-02T04:35:23.054Z,13.62
2016-09-02T04:36:23.226Z,13.65
2016-09-02T04:37:23.059Z,13.66
2016-09-02T04:38:23.214Z,13.65
2016-09-02T04:39:23.236Z,13.69
2016-09-02T04:40:23.060Z,13.69
2016-09-02T04:41:23.131Z,13.75
2016-09-02T04:42:23.143Z,13.72
2016-09-02T04:43:23.143Z,13.72
2016-09-02T04:44:23.242Z,13.76
2016-09-02T04:45:23.146Z,13.78
2016-09-02T04:46:23.225Z,13.84
2016-09-02T04:47:23.139Z,13.83
2016-09-02T04:48:23.139Z,13.75
2016-09-02T04:49:23.065Z,13.79
2016-09-02T04:50:23.081Z,13.7
2016-09-02T04:51:23.075Z,13.69
2016-09-02T04:52:23.073Z,13.62
2016-09-02T04:53:23.161Z,13.68
2016-09-02T04:54:23.083Z,13.76
2016-09-02T04:55:23.243Z,13.78
2016-09-02T04:56:23.161Z,13.76
2016-09-02T04:57:23.085Z,13.7
2016-09-02T04:58:23.164Z,13.62
2016-09-02T04:59:23.239Z,13.53
2016-09-02T05:00:23.179Z,13.65
2016-09-02T05:01:23.086Z,13.75
2016-09-02T05:02:23.163Z,13.76
2016-09-02T05:03:23.250Z,13.79
2016-09-02T05:04:23.165Z,13.73
2016-09-02T05:05:23.090Z,13.72
2016-09-02T05:06:23.257Z,13.69
2016-09-02T05:07:23.180Z,13.66
2016-09-02T05:08:23.282Z,13.58
2016-09-02T05:09:23.160Z,13.62
2016-09-02T05:10:23.592Z,13.65
2016-09-02T05:11:23.184Z,13.75
2016-09-02T05:12:23.187Z,13.66
2016-09-02T05:13:23.178Z,13.69
2016-09-02T05:14:23.259Z,13.73
2016-09-02T05:15:23.188Z,13.7
2016-09-02T05:16:23.095Z,13.63
2016-09-02T05:17:23.182Z,13.7
2016-09-02T05:18:23.265Z,13.66
2016-09-02T05:19:23.115Z,13.66
2016-09-02T05:20:23.196Z,13.69
2016-09-02T05:21:23.280Z,13.58
2016-09-02T05:22:23.180Z,13.68
2016-09-02T05:23:23.203Z,13.6
2016-09-02T05:24:23.287Z,13.54
2016-09-02T05:25:23.135Z,13.45
2016-09-02T05:26:23.188Z,13.44
2016-09-02T05:27:23.210Z,13.53
2016-09-02T05:28:23.204Z,13.42
2016-09-02T05:29:23.286Z,13.53
2016-09-02T05:30:23.129Z,13.63
2016-09-02T05:31:23.208Z,13.79
2016-09-02T05:32:23.194Z,13.75
2016-09-02T05:33:23.284Z,13.81
2016-09-02T05:34:23.133Z,14.05
2016-09-02T05:35:23.220Z,13.95
2016-09-02T05:36:23.298Z,13.99
2016-09-02T05:37:23.291Z,13.93
2016-09-02T05:38:23.146Z,13.88
2016-09-02T05:39:23.282Z,13.95
2016-09-02T05:40:23.210Z,13.97
2016-09-02T05:41:23.238Z,14.05
2016-09-02T05:42:23.214Z,14.12
2016-09-02T05:43:23.146Z,14.24
2016-09-02T05:44:23.306Z,14.28
2016-09-02T05:45:23.218Z,14.33
2016-09-02T05:46:23.284Z,14.45
2016-09-02T05:47:23.232Z,14.45
2016-09-02T05:48:23.236Z,14.48
2016-09-02T05:49:23.330Z,14.46
2016-09-02T05:50:23.238Z,14.52
2016-09-02T05:51:23.153Z,14.52
2016-09-02T05:52:23.346Z,14.45
2016-09-02T05:53:23.246Z,14.53
2016-09-02T05:54:23.154Z,14.52
2016-09-02T05:55:23.230Z,14.59
2016-09-02T05:56:23.248Z,14.74
2016-09-02T05:57:23.242Z,14.75
2016-09-02T05:58:23.323Z,14.83
2016-09-02T05:59:23.331Z,14.98
2016-09-02T06:00:23.325Z,15.13
2016-09-02T06:01:23.180Z,15.19
2016-09-02T06:02:23.252Z,15.25
2016-09-02T06:03:23.255Z,15.33
2016-09-02T06:04:23.205Z,15.35
2016-09-02T06:05:23.420Z,15.38
2016-09-02T06:06:23.174Z,15.41
2016-09-02T06:07:23.285Z,15.41
2016-09-02T06:08:23.325Z,15.4
2016-09-02T06:09:23.360Z,15.41
2016-09-02T06:10:23.271Z,15.35
2016-09-02T06:11:23.351Z,15.56
2016-09-02T06:12:23.189Z,15.68
2016-09-02T06:13:23.279Z,15.8
2016-09-02T06:14:23.367Z,16
2016-09-02T06:15:23.210Z,16.04
2016-09-02T06:16:23.359Z,16.1
2016-09-02T06:17:23.287Z,16.25
2016-09-02T06:18:23.366Z,16.21
2016-09-02T06:19:23.280Z,16.27
2016-09-02T06:20:23.391Z,16.34
2016-09-02T06:21:23.298Z,16.45
2016-09-02T06:22:23.214Z,16.42
2016-09-02T06:23:23.368Z,16.59
2016-09-02T06:24:23.360Z,16.73
2016-09-02T06:25:23.199Z,16.88
2016-09-02T06:26:23.316Z,16.95
2016-09-02T06:27:23.350Z,16.92
2016-09-02T06:28:23.342Z,16.74
2016-09-02T06:29:23.339Z,16.62
2016-09-02T06:30:23.334Z,16.45
2016-09-02T06:31:23.397Z,16.47
2016-09-02T06:32:23.304Z,16.36
2016-09-02T06:33:23.373Z,16.42
2016-09-02T06:34:23.312Z,16.36
2016-09-02T06:35:23.221Z,16.49
2016-09-02T06:36:23.224Z,16.63
2016-09-02T06:37:23.292Z,16.63
2016-09-02T06:38:23.399Z,16.59
2016-09-02T06:39:23.254Z,16.7
2016-09-02T06:40:23.312Z,16.77
2016-09-02T06:41:23.394Z,16.73
2016-09-02T06:42:23.300Z,16.87
2016-09-02T06:43:23.225Z,16.92
2016-09-02T06:44:23.350Z,17.09
2016-09-02T06:45:23.333Z,17.3
2016-09-02T06:46:23.256Z,17.12
2016-09-02T06:47:23.378Z,17.07
2016-09-02T06:48:23.606Z,16.94
2016-09-02T06:49:23.320Z,17.2
2016-09-02T06:50:23.493Z,17.22
2016-09-02T06:51:23.873Z,17.31
2016-09-02T06:52:23.543Z,17.09
2016-09-02T06:53:23.327Z,17.1
2016-09-02T06:54:23.239Z,17.18
2016-09-02T06:55:23.334Z,17.22
2016-09-02T06:56:23.250Z,17.22
2016-09-02T06:57:23.237Z,17.24
2016-09-02T06:58:23.335Z,17.22
2016-09-02T06:59:23.322Z,17.21
2016-09-02T07:00:23.413Z,17.17
2016-09-02T07:01:23.260Z,17.22
2016-09-02T07:02:23.420Z,17.24
2016-09-02T07:03:23.411Z,17.22
2016-09-02T07:04:23.250Z,17.1
2016-09-02T07:05:23.326Z,17.12
2016-09-02T07:06:23.351Z,17.27
2016-09-02T07:07:23.279Z,17.24
2016-09-02T07:08:23.329Z,17.27
2016-09-02T07:09:23.282Z,17.17
2016-09-02T07:10:23.348Z,17.24
2016-09-02T07:11:23.422Z,17.46
2016-09-02T07:12:23.338Z,17.5
2016-09-02T07:13:23.274Z,17.55
2016-09-02T07:14:23.276Z,17.6
2016-09-02T07:15:23.577Z,17.69
2016-09-02T07:16:23.429Z,17.47
2016-09-02T07:17:23.419Z,17.6
2016-09-02T07:18:23.431Z,17.62
2016-09-02T07:19:23.356Z,17.4
2016-09-02T07:20:23.422Z,17.71
2016-09-02T07:21:23.276Z,17.73
2016-09-02T07:22:23.286Z,17.83
2016-09-02T07:23:23.382Z,17.95
2016-09-02T07:24:23.371Z,18.02
2016-09-02T07:25:23.449Z,17.95
2016-09-02T07:26:23.360Z,17.87
2016-09-02T07:27:23.394Z,17.99
2016-09-02T07:28:23.361Z,18.06
2016-09-02T07:29:23.456Z,18.32
2016-09-02T07:30:23.389Z,18.32
2016-09-02T07:31:23.299Z,18.38
2016-09-02T07:32:23.370Z,18.34
2016-09-02T07:33:23.377Z,18.29
2016-09-02T07:34:23.369Z,18.2
2016-09-02T07:35:23.389Z,18.41
2016-09-02T07:36:23.445Z,18.34
2016-09-02T07:37:23.397Z,18.44
2016-09-02T07:38:23.387Z,18.36
2016-09-02T07:39:23.472Z,18.42
2016-09-02T07:40:23.386Z,18.45
2016-09-02T07:41:23.391Z,18.34
2016-09-02T07:42:23.428Z,18.49
2016-09-02T07:43:23.397Z,18.56
2016-09-02T07:44:23.387Z,18.75
2016-09-02T07:45:23.346Z,18.81
2016-09-02T07:46:23.337Z,18.84
2016-09-02T07:47:23.325Z,18.82
2016-09-02T07:48:23.512Z,18.99
2016-09-02T07:49:23.351Z,19.17
2016-09-02T07:50:23.445Z,19.43
2016-09-02T07:51:23.411Z,19.78
2016-09-02T07:52:23.540Z,19.92
2016-09-02T07:53:23.613Z,20.22
2016-09-02T07:54:23.418Z,20.11
2016-09-02T07:55:23.336Z,19.9
2016-09-02T07:56:23.466Z,19.78
2016-09-02T07:57:23.498Z,19.55
2016-09-02T07:58:23.500Z,19.3
2016-09-02T07:59:23.354Z,19.49
2016-09-02T08:00:23.430Z,19.72
2016-09-02T08:01:23.420Z,19.71
2016-09-02T08:02:23.457Z,19.5
2016-09-02T08:03:23.468Z,19.55
2016-09-02T08:04:23.444Z,19.53
2016-09-02T08:05:23.406Z,19.64
2016-09-02T08:06:23.514Z,19.63
2016-09-02T08:07:23.521Z,19.5
2016-09-02T08:08:23.526Z,19.55
2016-09-02T08:09:23.449Z,19.7
2016-09-02T08:10:23.449Z,19.89
2016-09-02T08:11:23.454Z,19.57
2016-09-02T08:12:23.442Z,19.6
2016-09-02T08:13:23.429Z,19.71
2016-09-02T08:14:23.390Z,19.64
2016-09-02T08:15:23.364Z,19.6
2016-09-02T08:16:23.459Z,19.4
2016-09-02T08:17:23.570Z,19.63
2016-09-02T08:18:23.468Z,19.74
2016-09-02T08:19:23.478Z,19.97
2016-09-02T08:20:23.372Z,20.19
2016-09-02T08:21:23.424Z,20.25
2016-09-02T08:22:23.477Z,20.37
2016-09-02T08:23:23.451Z,20.25
2016-09-02T08:24:23.525Z,20.27
2016-09-02T08:25:23.726Z,20.22
2016-09-02T08:26:23.565Z,20.22
2016-09-02T08:27:23.465Z,20.02
2016-09-02T08:28:23.550Z,19.97
2016-09-02T08:29:23.480Z,19.93
2016-09-02T08:30:23.470Z,19.87
2016-09-02T08:31:23.541Z,20.08
2016-09-02T08:32:23.405Z,20.29
2016-09-02T08:33:23.829Z,20.38
2016-09-02T08:34:23.590Z,20.37
2016-09-02T08:35:24.395Z,20.6
2016-09-02T08:36:23.486Z,20.57
2016-09-02T08:37:23.555Z,20.78
2016-09-02T08:38:23.541Z,20.81
2016-09-02T08:39:23.395Z,21.12
2016-09-02T08:40:23.568Z,21.21
2016-09-02T08:41:23.606Z,21.12
2016-09-02T08:42:23.500Z,21.18
2016-09-02T08:43:23.578Z,21.13
2016-09-02T08:44:23.599Z,21.33
2016-09-02T08:45:23.573Z,21.4
2016-09-02T08:46:23.525Z,21.3
2016-09-02T08:47:23.590Z,21.43
2016-09-02T08:48:23.489Z,21.22
2016-09-02T08:49:23.487Z,21.38
2016-09-02T08:50:23.508Z,21.19
2016-09-02T08:51:23.453Z,21.19
2016-09-02T08:52:23.511Z,21.43
2016-09-02T08:53:23.657Z,21.62
2016-09-02T08:54:23.432Z,21.9
2016-09-02T08:55:23.509Z,22.05
2016-09-02T08:56:23.632Z,21.93
2016-09-02T08:57:23.606Z,22.34
2016-09-02T08:58:23.599Z,22.59
2016-09-02T08:59:23.542Z,22.79
2016-09-02T09:00:23.590Z,22.84
2016-09-02T09:01:23.534Z,22.7
2016-09-02T09:02:23.521Z,22.91
2016-09-02T09:03:23.525Z,23.22
2016-09-02T09:04:23.438Z,22.73
2016-09-02T09:05:23.536Z,22.7
2016-09-02T09:06:23.612Z,22.88
2016-09-02T09:07:23.561Z,23.06
2016-09-02T09:08:23.620Z,22.85
2016-09-02T09:09:23.601Z,22.57
2016-09-02T09:10:23.574Z,22.18
2016-09-02T09:11:23.452Z,22.45
2016-09-02T09:12:23.468Z,22.67
2016-09-02T09:13:23.540Z,22.67
2016-09-02T09:14:23.573Z,23.24
2016-09-02T09:15:23.507Z,23.55
2016-09-02T09:16:23.533Z,23.07
2016-09-02T09:17:23.584Z,23.14
2016-09-02T09:18:23.480Z,23.37
2016-09-02T09:19:23.667Z,23.18
2016-09-02T09:20:23.571Z,22.89
2016-09-02T09:21:23.689Z,22.81
2016-09-02T09:22:23.522Z,22.48
2016-09-02T09:23:23.666Z,22.78
2016-09-02T09:24:23.587Z,22.84
2016-09-02T09:25:23.622Z,23.32
2016-09-02T09:26:23.638Z,23.53
2016-09-02T09:27:23.627Z,23.96
2016-09-02T09:28:23.488Z,23.64
2016-09-02T09:29:23.582Z,24.14
2016-09-02T09:30:23.573Z,23.72
2016-09-02T09:31:23.644Z,23.26
2016-09-02T09:32:23.645Z,23.59
2016-09-02T09:33:23.489Z,24.07
2016-09-02T09:34:23.486Z,23.84
2016-09-02T09:35:23.607Z,23.94
2016-09-02T09:36:23.664Z,23.38
2016-09-02T09:37:23.481Z,23.62
2016-09-02T09:38:23.648Z,23.9
2016-09-02T09:39:23.510Z,23.6
2016-09-02T09:40:23.593Z,23.79
2016-09-02T09:41:23.585Z,23.72
2016-09-02T09:42:23.585Z,23.71
2016-09-02T09:43:23.599Z,23.89
2016-09-02T09:44:23.494Z,23.81
2016-09-02T09:45:23.596Z,23.64
2016-09-02T09:46:23.584Z,22.86
2016-09-02T09:47:23.534Z,23.79
2016-09-02T09:48:23.605Z,24.12
2016-09-02T09:49:23.506Z,24.29
2016-09-02T09:50:23.504Z,24.4
2016-09-02T09:51:23.688Z,23.9
2016-09-02T09:52:23.588Z,24.02
2016-09-02T09:53:23.718Z,24.32
2016-09-02T09:54:23.601Z,24.03
2016-09-02T09:55:23.670Z,23.63
2016-09-02T09:56:23.679Z,23.82
2016-09-02T09:57:23.700Z,23.71
2016-09-02T09:58:23.652Z,23.32
2016-09-02T09:59:23.690Z,23.64
2016-09-02T10:00:23.610Z,24.14
2016-09-02T10:01:23.747Z,24.69
2016-09-02T10:02:23.652Z,24.08
2016-09-02T10:03:23.691Z,23.26
2016-09-02T10:04:23.539Z,23.16
2016-09-02T10:05:23.610Z,23.66
2016-09-02T10:06:23.559Z,23.67
2016-09-02T10:07:23.624Z,24.18
2016-09-02T10:08:23.537Z,24.27
2016-09-02T10:09:23.704Z,23.47
2016-09-02T10:10:23.643Z,24.07
2016-09-02T10:11:23.526Z,24.59
2016-09-02T10:12:23.629Z,24.39
2016-09-02T10:13:23.774Z,23.81
2016-09-02T10:14:23.702Z,24.02
2016-09-02T10:15:23.711Z,23.66
2016-09-02T10:16:23.747Z,24.15
2016-09-02T10:17:23.682Z,24.15
2016-09-02T10:18:23.703Z,24.27
2016-09-02T10:19:23.546Z,24.66
2016-09-02T10:20:23.606Z,24.77
2016-09-02T10:21:23.588Z,24.48
2016-09-02T10:22:23.631Z,24.44
2016-09-02T10:23:23.656Z,24.22
2016-09-02T10:24:23.638Z,24.11
2016-09-02T10:25:23.720Z,23.72
2016-09-02T10:26:23.561Z,24.3
2016-09-02T10:27:23.625Z,24.34
2016-09-02T10:28:23.646Z,24.14
2016-09-02T10:29:23.740Z,23.93
2016-09-02T10:30:23.569Z,24.33
2016-09-02T10:31:23.645Z,24.71
2016-09-02T10:32:23.642Z,24.69
2016-09-02T10:33:23.559Z,24.75
2016-09-02T10:34:23.717Z,24.9
2016-09-02T10:35:23.716Z,25.14
2016-09-02T10:36:23.636Z,25.32
2016-09-02T10:37:23.672Z,25.33
2016-09-02T10:38:23.674Z,25.17
2016-09-02T10:39:23.667Z,24.87
2016-09-02T10:40:23.761Z,24.36
2016-09-02T10:41:23.711Z,24.39
2016-09-02T10:42:23.591Z,24.74
2016-09-02T10:43:23.746Z,24.66
2016-09-02T10:44:23.683Z,24.37
2016-09-02T10:45:23.659Z,24.61
2016-09-02T10:46:23.574Z,24.71
2016-09-02T10:47:23.603Z,24.94
2016-09-02T10:48:23.747Z,24.82
2016-09-02T10:49:23.658Z,25.41
2016-09-02T10:50:23.631Z,25.48
2016-09-02T10:51:23.770Z,25.88
2016-09-02T10:52:23.688Z,25.81
2016-09-02T10:53:23.747Z,25.93
2016-09-02T10:54:24.036Z,26.26
2016-09-02T10:55:23.622Z,25.39
2016-09-02T10:56:23.716Z,24.74
2016-09-02T10:57:23.612Z,25.26
2016-09-02T10:58:23.683Z,25.48
2016-09-02T10:59:23.777Z,24.97
2016-09-02T11:00:23.822Z,25.62
2016-09-02T11:01:23.715Z,25.14
2016-09-02T11:02:24.082Z,25.45
2016-09-02T11:03:23.685Z,25.44
2016-09-02T11:04:24.790Z,25.52
2016-09-02T11:05:23.622Z,25.27
2016-09-02T11:06:23.685Z,25.29
2016-09-02T11:07:23.788Z,25.02
2016-09-02T11:08:23.717Z,25.22
2016-09-02T11:09:23.718Z,25.64
2016-09-02T11:10:23.634Z,25.88
2016-09-02T11:11:23.817Z,25.76
2016-09-02T11:12:23.792Z,25.81
2016-09-02T11:13:23.825Z,25.66
2016-09-02T11:14:23.651Z,25.86
2016-09-02T11:15:23.642Z,25.69
2016-09-02T11:16:23.803Z,25.47
2016-09-02T11:17:23.678Z,25.22
2016-09-02T11:18:23.622Z,25.3
2016-09-02T11:19:23.705Z,25.86
2016-09-02T11:20:23.727Z,25.54
2016-09-02T11:21:23.625Z,25.59
2016-09-02T11:22:23.818Z,25.63
2016-09-02T11:23:23.642Z,25.6
2016-09-02T11:24:23.689Z,25.51
2016-09-02T11:25:23.790Z,25.3
2016-09-02T11:26:23.777Z,25.49
2016-09-02T11:27:23.800Z,25.22
2016-09-02T11:28:23.658Z,25.3
2016-09-02T11:29:23.796Z,24.7
2016-09-02T11:30:23.724Z,24.87
2016-09-02T11:31:23.809Z,25.14
2016-09-02T11:32:23.730Z,25.09
2016-09-02T11:33:23.804Z,24.89
2016-09-02T11:34:23.748Z,24.86
2016-09-02T11:35:23.836Z,25.09
2016-09-02T11:36:23.686Z,25.42
2016-09-02T11:37:23.817Z,25.29
2016-09-02T11:38:23.747Z,24.89
2016-09-02T11:39:23.665Z,24.75
2016-09-02T11:40:23.733Z,24.54
2016-09-02T11:41:23.672Z,24.33
2016-09-02T11:42:23.755Z,24.48
2016-09-02T11:43:23.654Z,25.02
2016-09-02T11:44:23.841Z,25.09
2016-09-02T11:45:23.758Z,25.49
2016-09-02T11:46:23.743Z,26.27
2016-09-02T11:47:23.740Z,25.45
2016-09-02T11:48:23.766Z,25.45
2016-09-02T11:49:23.756Z,25.84
2016-09-02T11:50:23.684Z,25.54
2016-09-02T11:51:23.783Z,25.51
2016-09-02T11:52:23.757Z,25.84
2016-09-02T11:53:23.759Z,25.51
2016-09-02T11:54:23.960Z,25.96
2016-09-02T11:55:23.806Z,26.31
2016-09-02T11:56:23.832Z,25.89
2016-09-02T11:57:23.858Z,25.7
2016-09-02T11:58:23.753Z,26.04
2016-09-02T11:59:23.877Z,26.07
2016-09-02T12:00:23.805Z,25.93
2016-09-02T12:01:23.866Z,26.52
2016-09-02T12:02:23.878Z,26.31
2016-09-02T12:03:23.801Z,26.19
2016-09-02T12:04:23.780Z,25.64
2016-09-02T12:05:23.730Z,25.66
2016-09-02T12:06:23.762Z,25.91
2016-09-02T12:07:23.778Z,26.24
2016-09-02T12:08:23.767Z,26.57
2016-09-02T12:09:23.741Z,27.15
2016-09-02T12:10:23.781Z,26.97
2016-09-02T12:11:23.868Z,26.37
2016-09-02T12:12:23.885Z,26.76
2016-09-02T12:13:23.701Z,26.99
2016-09-02T12:14:23.721Z,27.21
2016-09-02T12:15:24.195Z,27
2016-09-02T12:16:23.808Z,26.57
2016-09-02T12:17:23.789Z,26.26
2016-09-02T12:18:23.796Z,26.84
2016-09-02T12:19:23.836Z,26.69
2016-09-02T12:20:23.801Z,26.41
2016-09-02T12:21:23.707Z,26.44
2016-09-02T12:22:23.707Z,26.93
2016-09-02T12:23:23.883Z,27.27
2016-09-02T12:24:23.716Z,26.99
2016-09-02T12:25:23.733Z,27.11
2016-09-02T12:26:23.929Z,26.82
2016-09-02T12:27:23.805Z,26.94
2016-09-02T12:28:23.745Z,26.75
2016-09-02T12:29:23.802Z,26.81
2016-09-02T12:30:23.890Z,26.9
2016-09-02T12:31:23.809Z,27
2016-09-02T12:32:23.812Z,27.23
2016-09-02T12:33:23.810Z,26.96
2016-09-02T12:34:23.852Z,27.31
2016-09-02T12:35:23.806Z,26.84
2016-09-02T12:36:23.839Z,26.24
2016-09-02T12:37:23.820Z,27
2016-09-02T12:38:23.734Z,27.55
2016-09-02T12:39:23.904Z,27.74
2016-09-02T12:40:23.944Z,27.16
2016-09-02T12:41:23.966Z,27.05
2016-09-02T12:42:23.770Z,27.34
2016-09-02T12:43:23.823Z,27.27
2016-09-02T12:44:23.827Z,27.16
2016-09-02T12:45:23.779Z,27.15
2016-09-02T12:46:23.971Z,27.34
2016-09-02T12:47:23.774Z,27.46
2016-09-02T12:48:23.769Z,26.97
2016-09-02T12:49:23.767Z,27.01
2016-09-02T12:50:23.836Z,27.33
2016-09-02T12:51:23.866Z,27.34
2016-09-02T12:52:23.774Z,26.49
2016-09-02T12:53:23.920Z,26.5
2016-09-02T12:54:23.971Z,27.08
2016-09-02T12:55:23.874Z,27.01